createdAt,value
2023-12-13T00:02:50.624Z,9.28
2023-12-13T00:05:52.425Z,9.29
2023-12-13T00:08:54.164Z,9.31
2023-12-13T00:11:55.907Z,9.33
2023-12-13T00:14:57.610Z,9.29
2023-12-13T00:18:00.771Z,9.27
2023-12-13T00:21:02.581Z,9.27
2023-12-13T00:24:04.842Z,9.27
2023-12-13T00:27:07.296Z,9.28
2023-12-13T00:30:10.726Z,9.26
2023-12-13T00:33:13.841Z,9.27
2023-12-13T00:36:16.079Z,9.27
2023-12-13T00:39:17.826Z,9.25
2023-12-13T00:42:19.552Z,9.25
2023-12-13T00:45:21.496Z,9.22
2023-12-13T00:48:24.661Z,9.17
2023-12-13T00:51:26.972Z,9.08
2023-12-13T00:54:28.682Z,9.02
2023-12-13T00:57:30.608Z,9.01
2023-12-13T01:00:32.542Z,9.05
2023-12-13T01:03:35.824Z,9.07
2023-12-13T01:06:37.564Z,9.07
2023-12-13T01:09:40.408Z,9.07
2023-12-13T01:12:45.312Z,9.10
2023-12-13T01:15:47.156Z,9.10
2023-12-13T01:18:50.301Z,9.07
2023-12-13T01:21:52.043Z,9.07
2023-12-13T01:24:53.913Z,9.07
2023-12-13T01:27:59.277Z,9.09
2023-12-13T01:31:06.368Z,9.06
2023-12-13T01:34:09.339Z,9.04
2023-12-13T01:37:11.103Z,9.02
2023-12-13T01:40:13.004Z,9.01
2023-12-13T01:43:21.658Z,9.00
2023-12-13T01:46:23.491Z,9.03
2023-12-13T01:49:27.192Z,8.96
2023-12-13T01:52:29.742Z,8.97
2023-12-13T01:55:31.813Z,8.98
2023-12-13T01:58:37.888Z,8.92
2023-12-13T02:01:40.224Z,8.81
2023-12-13T02:04:44.188Z,8.67
2023-12-13T02:07:45.898Z,8.69
2023-12-13T02:10:48.713Z,8.73
2023-12-13T02:13:51.018Z,8.82
2023-12-13T02:16:54.300Z,8.84
2023-12-13T02:19:57.384Z,8.87
2023-12-13T02:23:00.499Z,8.89
2023-12-13T02:26:03.753Z,8.89
2023-12-13T02:29:05.647Z,8.82
2023-12-13T02:32:07.653Z,8.86
2023-12-13T02:35:09.543Z,8.89
2023-12-13T02:38:12.658Z,8.81
2023-12-13T02:41:14.360Z,8.82
2023-12-13T02:44:16.176Z,8.81
2023-12-13T02:47:18.018Z,8.80
2023-12-13T02:50:20.202Z,8.82
2023-12-13T02:53:24.446Z,8.83
2023-12-13T02:56:26.769Z,8.85
2023-12-13T02:59:28.488Z,8.79
2023-12-13T03:02:30.259Z,8.78
2023-12-13T03:05:31.964Z,8.77
2023-12-13T03:08:37.314Z,8.72
2023-12-13T03:11:40.575Z,8.67
2023-12-13T03:14:42.425Z,8.54
2023-12-13T03:17:44.196Z,8.45
2023-12-13T03:20:46.120Z,8.34
2023-12-13T03:23:49.199Z,8.30
2023-12-13T03:26:50.884Z,8.19
2023-12-13T03:29:53.124Z,8.12
2023-12-13T03:32:54.889Z,8.05
2023-12-13T03:35:57.229Z,7.96
2023-12-13T03:39:00.307Z,7.94
2023-12-13T03:42:02.076Z,7.93
2023-12-13T03:45:04.650Z,7.90
2023-12-13T03:48:06.474Z,7.83
2023-12-13T03:51:08.331Z,7.80
2023-12-13T03:54:11.545Z,7.81
2023-12-13T03:57:13.295Z,7.75
2023-12-13T04:00:15.203Z,7.74
2023-12-13T04:03:17.043Z,7.69
2023-12-13T04:06:19.021Z,7.73
2023-12-13T04:09:22.791Z,7.78
2023-12-13T04:12:24.462Z,7.78
2023-12-13T04:15:26.123Z,7.68
2023-12-13T04:18:28.075Z,7.66
2023-12-13T04:21:29.828Z,7.66
2023-12-13T04:24:32.902Z,7.76
2023-12-13T04:27:35.781Z,7.87
2023-12-13T04:30:37.755Z,7.95
2023-12-13T04:33:39.614Z,7.99
2023-12-13T04:36:41.441Z,8.01
2023-12-13T04:39:44.591Z,8.03
2023-12-13T04:42:46.400Z,7.95
2023-12-13T04:45:48.128Z,7.92
2023-12-13T04:48:50.006Z,7.94
2023-12-13T04:51:51.763Z,7.94
2023-12-13T04:54:56.757Z,7.87
2023-12-13T04:57:58.716Z,7.92
2023-12-13T05:01:00.454Z,7.87
2023-12-13T05:04:02.418Z,7.83
2023-12-13T05:07:05.035Z,7.83
2023-12-13T05:10:09.154Z,7.89
2023-12-13T05:13:11.004Z,7.86
2023-12-13T05:16:12.864Z,7.91
2023-12-13T05:19:14.680Z,7.95
2023-12-13T05:22:16.493Z,8.03
2023-12-13T05:25:19.734Z,7.98
2023-12-13T05:28:21.848Z,8.04
2023-12-13T05:31:24.484Z,8.09
2023-12-13T05:34:26.257Z,8.13
2023-12-13T05:37:27.970Z,8.13
2023-12-13T05:40:32.900Z,8.13
2023-12-13T05:43:36.612Z,8.11
2023-12-13T05:46:38.318Z,8.17
2023-12-13T05:49:40.120Z,8.16
2023-12-13T05:52:41.911Z,8.18
2023-12-13T05:55:44.984Z,8.21
2023-12-13T05:58:46.777Z,8.26
2023-12-13T06:01:48.749Z,8.22
2023-12-13T06:04:50.530Z,8.27
2023-12-13T06:07:52.511Z,8.34
2023-12-13T06:10:57.909Z,8.29
2023-12-13T06:13:59.774Z,8.31
2023-12-13T06:17:01.615Z,8.36
2023-12-13T06:20:04.620Z,8.40
2023-12-13T06:23:06.441Z,8.36
2023-12-13T06:26:09.500Z,8.31
2023-12-13T06:29:12.354Z,8.34
2023-12-13T06:32:14.156Z,8.39
2023-12-13T06:35:16.066Z,8.39
2023-12-13T06:38:17.934Z,8.35
2023-12-13T06:41:21.000Z,8.33
2023-12-13T06:44:23.336Z,8.27
2023-12-13T06:47:26.849Z,8.26
2023-12-13T06:50:29.597Z,8.26
2023-12-13T06:53:31.246Z,8.31
2023-12-13T06:56:34.260Z,8.30
2023-12-13T06:59:35.976Z,8.32
2023-12-13T07:02:38.029Z,8.33
2023-12-13T07:05:40.032Z,8.33
2023-12-13T07:08:41.840Z,8.34
2023-12-13T07:11:45.421Z,8.32
2023-12-13T07:14:47.160Z,8.39
2023-12-13T07:17:49.091Z,8.41
2023-12-13T07:20:50.905Z,8.42
2023-12-13T07:23:52.746Z,8.41
2023-12-13T07:26:55.761Z,8.41
2023-12-13T07:29:57.474Z,8.42
2023-12-13T07:32:59.230Z,8.42
2023-12-13T07:36:01.088Z,8.50
2023-12-13T07:39:04.090Z,8.51
2023-12-13T07:42:07.359Z,8.56
2023-12-13T07:45:11.888Z,8.56
2023-12-13T07:48:21.732Z,8.49
2023-12-13T07:51:29.203Z,8.37
2023-12-13T07:54:30.974Z,8.37
2023-12-13T07:57:33.993Z,8.41
2023-12-13T08:00:36.509Z,8.47
2023-12-13T08:03:38.260Z,8.40
2023-12-13T08:06:40.093Z,8.38
2023-12-13T08:09:41.841Z,8.40
2023-12-13T08:12:45.125Z,8.43
2023-12-13T08:15:49.344Z,8.44
2023-12-13T08:18:51.342Z,8.48
2023-12-13T08:21:53.925Z,8.48
2023-12-13T08:24:55.710Z,8.49
2023-12-13T08:27:58.771Z,8.49
2023-12-13T08:31:09.060Z,8.50
2023-12-13T08:34:19.278Z,8.50
2023-12-13T08:37:22.418Z,8.51
2023-12-13T08:40:24.308Z,8.53
2023-12-13T08:43:27.521Z,8.58
2023-12-13T08:46:29.286Z,8.60
2023-12-13T08:49:31.046Z,8.61
2023-12-13T08:52:33.115Z,8.70
2023-12-13T08:55:34.885Z,8.76
2023-12-13T08:58:38.046Z,8.83
2023-12-13T09:01:40.771Z,8.83
2023-12-13T09:04:42.788Z,8.89
2023-12-13T09:07:44.779Z,8.85
2023-12-13T09:10:47.243Z,8.79
2023-12-13T09:13:50.505Z,8.72
2023-12-13T09:16:52.397Z,8.74
2023-12-13T09:19:54.204Z,8.75
2023-12-13T09:22:56.068Z,8.81
2023-12-13T09:26:00.207Z,8.85
2023-12-13T09:29:03.986Z,8.90
2023-12-13T09:32:06.221Z,9.05
2023-12-13T09:35:08.111Z,9.26
2023-12-13T09:38:10.399Z,9.38
2023-12-13T09:41:13.066Z,9.54
2023-12-13T09:44:18.127Z,9.45
2023-12-13T09:47:22.547Z,9.40
2023-12-13T09:50:25.564Z,9.38
2023-12-13T09:53:30.349Z,9.22
2023-12-13T09:56:32.036Z,9.20
2023-12-13T09:59:36.795Z,9.20
2023-12-13T10:02:38.673Z,9.35
2023-12-13T10:05:45.754Z,9.37
2023-12-13T10:08:54.567Z,9.35
2023-12-13T10:11:56.922Z,9.43
2023-12-13T10:15:10.891Z,9.58
2023-12-13T10:18:12.745Z,9.37
2023-12-13T10:21:15.267Z,9.21
2023-12-13T10:24:17.018Z,9.17
2023-12-13T10:27:19.050Z,9.01
2023-12-13T10:30:22.198Z,9.01
2023-12-13T10:33:23.942Z,9.00
2023-12-13T10:36:27.160Z,8.94
2023-12-13T10:39:29.327Z,9.00
2023-12-13T10:42:32.849Z,8.94
2023-12-13T10:45:36.617Z,8.98
2023-12-13T10:48:38.747Z,9.03
2023-12-13T10:51:40.914Z,8.99
2023-12-13T10:54:43.226Z,8.94
2023-12-13T10:57:45.795Z,8.94
2023-12-13T11:00:49.899Z,8.89
2023-12-13T11:03:58.266Z,8.91
2023-12-13T11:07:09.284Z,8.92
2023-12-13T11:10:13.601Z,8.89
2023-12-13T11:13:22.499Z,8.89
2023-12-13T11:16:26.908Z,8.81
2023-12-13T11:19:37.035Z,8.85
2023-12-13T11:22:44.009Z,8.76
2023-12-13T11:25:50.414Z,8.66
2023-12-13T11:28:55.604Z,8.76
2023-12-13T11:32:00.497Z,8.79
2023-12-13T11:35:13.457Z,8.74
2023-12-13T11:38:15.995Z,8.63
2023-12-13T11:41:18.418Z,8.61
2023-12-13T11:44:20.749Z,8.55
2023-12-13T11:47:23.928Z,8.51
2023-12-13T11:50:26.110Z,8.43
2023-12-13T11:53:27.886Z,8.43
2023-12-13T11:56:29.676Z,8.47
2023-12-13T11:59:31.396Z,8.50
2023-12-13T12:02:34.693Z,8.66
2023-12-13T12:05:36.563Z,8.68
2023-12-13T12:08:40.406Z,8.74
2023-12-13T12:11:42.161Z,8.90
2023-12-13T12:14:46.229Z,9.04
2023-12-13T12:17:49.470Z,9.04
2023-12-13T12:20:51.277Z,9.12
2023-12-13T12:23:53.257Z,9.00
2023-12-13T12:26:55.616Z,8.89
2023-12-13T12:29:57.499Z,8.95
2023-12-13T12:33:00.901Z,9.09
2023-12-13T12:36:03.145Z,9.09
2023-12-13T12:39:05.124Z,9.17
2023-12-13T12:42:07.385Z,9.05
2023-12-13T12:45:09.273Z,9.20
2023-12-13T12:48:13.497Z,9.47
2023-12-13T12:51:15.476Z,9.61
2023-12-13T12:54:17.251Z,9.61
2023-12-13T12:57:18.988Z,9.84
2023-12-13T13:00:21.272Z,9.91
2023-12-13T13:03:25.719Z,9.80
2023-12-13T13:06:27.510Z,9.72
2023-12-13T13:09:29.268Z,9.62
2023-12-13T13:12:31.994Z,9.48
2023-12-13T13:15:33.840Z,10.23
2023-12-13T13:18:37.036Z,11.30
2023-12-13T13:21:38.789Z,11.11
2023-12-13T13:24:41.299Z,10.55
2023-12-13T13:27:45.528Z,10.25
2023-12-13T13:30:47.284Z,9.98
2023-12-13T13:33:50.505Z,9.65
2023-12-13T13:36:52.299Z,9.53
2023-12-13T13:39:54.244Z,9.54
2023-12-13T13:42:56.129Z,9.52
2023-12-13T13:45:57.846Z,9.47
2023-12-13T13:49:01.670Z,9.37
2023-12-13T13:52:03.649Z,9.27
2023-12-13T13:55:07.096Z,9.23
2023-12-13T13:58:08.833Z,9.26
2023-12-13T14:01:10.963Z,9.16
2023-12-13T14:04:14.605Z,9.11
2023-12-13T14:07:16.294Z,9.04
2023-12-13T14:10:18.375Z,9.00
2023-12-13T14:13:21.805Z,8.93
2023-12-13T14:16:23.873Z,8.99
2023-12-13T14:19:27.322Z,9.13
2023-12-13T14:22:29.358Z,9.12
2023-12-13T14:25:31.225Z,8.89
2023-12-13T14:28:33.067Z,8.67
2023-12-13T14:31:34.868Z,8.65
2023-12-13T14:34:38.024Z,8.53
2023-12-13T14:37:44.085Z,8.59
2023-12-13T14:40:48.278Z,8.59
2023-12-13T14:43:50.539Z,8.54
2023-12-13T14:46:52.475Z,8.55
2023-12-13T14:49:55.657Z,8.54
2023-12-13T14:52:58.028Z,8.50
2023-12-13T14:56:00.168Z,8.51
2023-12-13T14:59:02.063Z,8.50
2023-12-13T15:02:04.700Z,8.57
2023-12-13T15:05:09.593Z,8.54
2023-12-13T15:08:11.335Z,8.61
2023-12-13T15:11:13.170Z,8.61
2023-12-13T15:14:17.497Z,8.60
2023-12-13T15:17:19.480Z,8.55
2023-12-13T15:20:22.798Z,8.54
2023-12-13T15:23:25.601Z,8.55
2023-12-13T15:26:28.061Z,8.58
2023-12-13T15:29:29.833Z,8.54
2023-12-13T15:32:31.626Z,8.49
2023-12-13T15:35:35.302Z,8.52
2023-12-13T15:38:38.314Z,8.48
2023-12-13T15:41:40.109Z,8.43
2023-12-13T15:44:42.023Z,8.32
2023-12-13T15:47:43.943Z,8.18
2023-12-13T15:50:47.199Z,8.16
2023-12-13T15:53:48.939Z,8.06
2023-12-13T15:56:50.726Z,7.77
2023-12-13T15:59:52.560Z,7.18
2023-12-13T16:02:54.349Z,6.95
2023-12-13T16:05:57.568Z,6.93
2023-12-13T16:08:59.268Z,6.93
2023-12-13T16:12:01.022Z,6.98
2023-12-13T16:22:35.741Z,6.59
2023-12-13T16:25:37.593Z,6.57
2023-12-13T16:28:39.362Z,6.58
2023-12-13T16:31:41.333Z,6.53
2023-12-13T16:34:43.190Z,6.50
2023-12-13T16:37:46.377Z,6.46
2023-12-13T16:40:48.280Z,6.55
2023-12-13T16:43:50.158Z,6.50
2023-12-13T16:46:52.263Z,6.49
2023-12-13T16:49:54.224Z,6.52
2023-12-13T16:52:57.502Z,6.51
2023-12-13T16:56:02.314Z,6.62
2023-12-13T16:59:07.173Z,6.66
2023-12-13T17:02:09.769Z,6.61
2023-12-13T17:05:11.914Z,6.66
2023-12-13T17:08:15.272Z,6.73
2023-12-13T17:11:17.721Z,6.75
2023-12-13T17:14:20.055Z,6.77
2023-12-13T17:17:21.873Z,6.87
2023-12-13T17:20:24.011Z,6.98
2023-12-13T17:23:27.403Z,7.02
2023-12-13T17:26:29.311Z,7.04
2023-12-13T17:29:37.684Z,7.04
2023-12-13T17:32:40.315Z,7.02
2023-12-13T17:35:43.275Z,6.98
2023-12-13T17:38:47.307Z,6.90
2023-12-13T17:41:49.251Z,6.86
2023-12-13T17:44:50.994Z,6.92
2023-12-13T17:47:53.006Z,6.95
2023-12-13T17:50:54.886Z,6.98
2023-12-13T17:53:57.991Z,7.06
2023-12-13T17:57:01.064Z,7.08
2023-12-13T18:00:04.348Z,7.09
2023-12-13T18:03:06.697Z,7.12
2023-12-13T18:06:09.204Z,7.16
2023-12-13T18:09:12.386Z,7.17
2023-12-13T18:12:14.612Z,7.16
2023-12-13T18:15:16.441Z,7.22
2023-12-13T18:18:20.310Z,7.19
2023-12-13T18:21:28.761Z,7.20
2023-12-13T18:24:31.943Z,7.19
2023-12-13T18:27:33.736Z,7.17
2023-12-13T18:30:35.599Z,7.21
2023-12-13T18:33:37.630Z,7.18
2023-12-13T18:36:39.769Z,7.12
2023-12-13T18:39:44.986Z,7.12
2023-12-13T18:42:46.547Z,7.11
2023-12-13T18:45:48.975Z,7.04
2023-12-13T18:48:51.549Z,7.06
2023-12-13T18:51:54.353Z,7.13
2023-12-13T18:54:57.688Z,7.19
2023-12-13T18:57:59.694Z,7.11
2023-12-13T19:01:01.720Z,7.13
2023-12-13T19:04:04.190Z,7.08
2023-12-13T19:07:06.019Z,7.16
2023-12-13T19:10:11.016Z,7.12
2023-12-13T19:13:12.771Z,7.15
2023-12-13T19:16:14.787Z,7.16
2023-12-13T19:19:18.265Z,7.17
2023-12-13T19:22:20.790Z,7.16
2023-12-13T19:25:23.913Z,7.17
2023-12-13T19:28:25.629Z,7.16
2023-12-13T19:31:27.953Z,7.19
2023-12-13T19:34:36.951Z,7.18
2023-12-13T19:37:41.054Z,7.12
2023-12-13T19:40:44.753Z,7.10
2023-12-13T19:43:49.442Z,7.08
2023-12-13T19:46:51.340Z,7.05
2023-12-13T19:49:54.474Z,7.04
2023-12-13T19:52:57.300Z,7.08
2023-12-13T19:56:00.907Z,7.09
2023-12-13T19:59:02.839Z,7.09
2023-12-13T20:02:05.766Z,7.10
2023-12-13T20:05:08.002Z,7.09
2023-12-13T20:08:10.037Z,7.03
2023-12-13T20:11:13.605Z,7.03
2023-12-13T20:14:15.636Z,7.06
2023-12-13T20:17:17.626Z,7.01
2023-12-13T20:20:19.408Z,7.09
2023-12-13T20:23:21.148Z,7.11
2023-12-13T20:26:24.297Z,7.09
2023-12-13T20:29:26.184Z,7.10
2023-12-13T20:32:27.988Z,7.04
2023-12-13T20:35:29.862Z,7.00
2023-12-13T20:38:31.600Z,6.95
2023-12-13T20:41:34.832Z,6.90
2023-12-13T20:44:37.021Z,6.88
2023-12-13T20:47:40.150Z,6.87
2023-12-13T20:50:43.298Z,6.86
2023-12-13T20:53:45.118Z,6.83
2023-12-13T20:56:48.286Z,6.78
2023-12-13T20:59:50.004Z,6.88
2023-12-13T21:02:51.793Z,6.91
2023-12-13T21:05:53.541Z,6.91
2023-12-13T21:08:55.373Z,6.92
2023-12-13T21:11:58.535Z,6.97
2023-12-13T21:15:00.392Z,7.02
2023-12-13T21:18:02.318Z,7.03
2023-12-13T21:21:04.746Z,7.05
2023-12-13T21:24:14.900Z,7.02
2023-12-13T21:27:21.881Z,6.93
2023-12-13T21:30:23.889Z,6.96
2023-12-13T21:33:25.753Z,6.99
2023-12-13T21:36:27.655Z,7.00
2023-12-13T21:39:29.541Z,7.05
2023-12-13T21:42:33.171Z,7.09
2023-12-13T21:45:35.190Z,7.08
2023-12-13T21:48:37.134Z,7.03
2023-12-13T21:51:40.740Z,7.03
2023-12-13T21:54:42.540Z,7.00
2023-12-13T21:57:45.669Z,6.99
2023-12-13T22:00:47.507Z,7.02
2023-12-13T22:03:53.008Z,7.03
2023-12-13T22:06:54.765Z,7.05
2023-12-13T22:09:56.756Z,7.08
2023-12-13T22:12:59.922Z,7.09
2023-12-13T22:16:02.501Z,7.09
2023-12-13T22:19:22.751Z,7.06
2023-12-13T22:22:24.721Z,7.05
2023-12-13T22:25:26.677Z,7.04
2023-12-13T22:28:29.968Z,7.07
2023-12-13T22:31:31.858Z,7.07
2023-12-13T22:34:33.755Z,7.03
2023-12-13T22:37:35.535Z,7.06
2023-12-13T22:40:37.555Z,7.07
2023-12-13T22:43:40.752Z,7.00
2023-12-13T22:46:44.092Z,7.06
2023-12-13T22:49:46.059Z,7.07
2023-12-13T22:52:47.973Z,7.09
2023-12-13T22:55:49.836Z,7.18
2023-12-13T22:58:53.196Z,7.21
2023-12-13T23:01:57.888Z,7.20
2023-12-13T23:05:01.741Z,7.20
2023-12-13T23:08:04.175Z,7.16
2023-12-13T23:11:06.560Z,7.15
2023-12-13T23:14:12.646Z,7.08
2023-12-13T23:17:14.762Z,6.98
2023-12-13T23:20:16.756Z,6.96
2023-12-13T23:23:18.824Z,6.87
2023-12-13T23:26:20.845Z,6.82
2023-12-13T23:29:24.025Z,6.75
2023-12-13T23:32:26.096Z,6.67
2023-12-13T23:35:28.031Z,6.58
2023-12-13T23:38:29.877Z,6.54
2023-12-13T23:41:31.801Z,6.47
2023-12-13T23:44:35.518Z,6.41
2023-12-13T23:47:37.302Z,6.49
2023-12-13T23:50:39.079Z,6.50
2023-12-13T23:53:43.447Z,6.44
2023-12-13T23:56:45.943Z,6.47
2023-12-13T23:59:48.996Z,6.49
